createdAt,value
2019-02-21T00:02:31.049Z,38.67
2019-02-21T00:05:32.988Z,46.23
2019-02-21T00:08:34.931Z,45.67
2019-02-21T00:11:37.346Z,35.67
2019-02-21T00:14:39.424Z,40.03
2019-02-21T00:17:41.426Z,36.53
2019-02-21T00:20:43.505Z,33.43
2019-02-21T00:23:45.502Z,30.57
2019-02-21T00:26:47.481Z,33.43
2019-02-21T00:29:49.413Z,32.50
2019-02-21T00:32:51.321Z,36.00
2019-02-21T00:35:53.400Z,31.70
2019-02-21T00:38:55.400Z,30.07
2019-02-21T00:41:57.371Z,40.37
2019-02-21T00:44:59.319Z,32.07
2019-02-21T00:48:01.436Z,34.43
2019-02-21T00:51:03.358Z,39.80
2019-02-21T00:54:05.308Z,39.00
2019-02-21T00:57:07.305Z,51.73
2019-02-21T01:00:11.831Z,39.67
2019-02-21T01:03:13.779Z,41.60
2019-02-21T01:06:15.775Z,48.50
2019-02-21T01:09:17.852Z,33.30
2019-02-21T01:12:19.924Z,33.10
2019-02-21T01:15:21.840Z,33.77
2019-02-21T01:18:23.820Z,28.93
2019-02-21T01:21:25.692Z,34.80
2019-02-21T01:24:27.663Z,41.30
2019-02-21T01:27:29.629Z,36.70
2019-02-21T01:30:31.536Z,34.73
2019-02-21T01:33:33.507Z,37.60
2019-02-21T01:36:35.527Z,33.13
2019-02-21T01:39:37.498Z,36.10
2019-02-21T01:42:39.450Z,31.70
2019-02-21T01:45:41.555Z,30.23
2019-02-21T01:48:43.452Z,31.37
2019-02-21T01:51:45.345Z,25.40
2019-02-21T01:54:47.215Z,28.70
2019-02-21T01:57:49.958Z,29.37
2019-02-21T02:00:51.941Z,27.23
2019-02-21T02:03:53.898Z,36.37
2019-02-21T02:06:55.801Z,31.83
2019-02-21T02:09:57.822Z,30.13
2019-02-21T02:12:59.707Z,29.13
2019-02-21T02:16:01.611Z,25.37
2019-02-21T02:19:03.515Z,25.97
2019-02-21T02:22:05.402Z,21.67
2019-02-21T02:25:07.347Z,24.87
2019-02-21T02:28:09.410Z,25.43
2019-02-21T02:31:22.100Z,27.53
2019-02-21T02:34:15.992Z,28.70
2019-02-21T02:37:18.002Z,23.50
2019-02-21T02:40:19.875Z,26.63
2019-02-21T02:43:22.315Z,29.03
2019-02-21T02:46:24.230Z,23.20
2019-02-21T02:49:26.181Z,29.80
2019-02-21T02:52:28.087Z,30.43
2019-02-21T02:55:30.021Z,31.27
2019-02-21T02:58:32.029Z,31.80
2019-02-21T03:01:35.190Z,27.50
2019-02-21T03:04:37.581Z,25.77
2019-02-21T03:07:39.505Z,26.37
2019-02-21T03:10:41.404Z,30.43
2019-02-21T03:13:43.303Z,29.93
2019-02-21T03:16:45.258Z,30.17
2019-02-21T03:19:47.218Z,24.93
2019-02-21T03:22:49.551Z,32.63
2019-02-21T03:25:52.270Z,29.47
2019-02-21T03:28:54.245Z,24.07
2019-02-21T03:31:56.510Z,26.73
2019-02-21T03:34:58.650Z,27.40
2019-02-21T03:38:00.807Z,28.60
2019-02-21T03:41:02.873Z,28.53
2019-02-21T03:44:04.874Z,23.63
2019-02-21T03:47:06.787Z,27.83
2019-02-21T03:50:09.957Z,30.57
2019-02-21T03:53:11.836Z,26.60
2019-02-21T03:56:13.785Z,27.00
2019-02-21T03:59:16.131Z,26.70
2019-02-21T04:02:18.037Z,25.67
2019-02-21T04:05:20.061Z,28.70
2019-02-21T04:08:22.165Z,21.83
2019-02-21T04:11:24.048Z,27.17
2019-02-21T04:14:26.126Z,28.50
2019-02-21T04:17:28.021Z,29.80
2019-02-21T04:20:29.942Z,27.37
2019-02-21T04:23:31.815Z,30.77
2019-02-21T04:26:33.716Z,27.80
2019-02-21T04:29:35.653Z,28.57
2019-02-21T04:32:37.596Z,27.23
2019-02-21T04:35:39.542Z,28.97
2019-02-21T04:38:41.582Z,25.40
2019-02-21T04:41:43.456Z,22.63
2019-02-21T04:44:45.354Z,26.97
2019-02-21T04:47:47.243Z,35.90
2019-02-21T04:50:49.208Z,30.87
2019-02-21T04:53:51.107Z,27.73
2019-02-21T04:56:53.096Z,33.23
2019-02-21T04:59:56.186Z,29.00
2019-02-21T05:02:58.126Z,34.97
2019-02-21T05:06:00.026Z,42.90
2019-02-21T05:09:01.965Z,38.87
2019-02-21T05:12:05.675Z,35.80
2019-02-21T05:15:08.998Z,43.00
2019-02-21T05:18:10.947Z,42.17
2019-02-21T05:21:12.823Z,56.77
2019-02-21T05:24:14.813Z,42.90
2019-02-21T05:27:18.547Z,43.00
2019-02-21T05:30:22.377Z,58.20
2019-02-21T05:33:41.517Z,82.00
2019-02-21T05:36:51.071Z,78.43
2019-02-21T05:40:03.129Z,53.27
2019-02-21T05:43:06.724Z,40.03
2019-02-21T05:46:13.472Z,35.43
2019-02-21T05:49:20.231Z,33.97
2019-02-21T05:52:26.816Z,42.87
2019-02-21T05:55:30.486Z,47.13
2019-02-21T05:58:37.018Z,43.03
2019-02-21T06:01:40.831Z,38.80
2019-02-21T06:04:47.464Z,50.97
2019-02-21T06:08:05.985Z,52.77
2019-02-21T06:11:18.030Z,58.43
2019-02-21T06:14:24.012Z,36.00
2019-02-21T06:17:30.718Z,30.93
2019-02-21T06:20:40.927Z,51.77
2019-02-21T06:23:49.226Z,50.83
2019-02-21T06:26:53.173Z,56.50
2019-02-21T06:30:00.348Z,66.00
2019-02-21T06:33:05.402Z,49.50
2019-02-21T06:36:06.595Z,43.37
2019-02-21T06:39:08.513Z,41.20
2019-02-21T06:42:10.564Z,33.33
2019-02-21T06:45:12.490Z,38.83
2019-02-21T06:48:14.433Z,34.43
2019-02-21T06:51:16.347Z,42.40
2019-02-21T06:54:18.529Z,40.87
2019-02-21T06:57:20.453Z,43.83
2019-02-21T07:00:22.461Z,43.07
2019-02-21T07:03:25.971Z,44.53
2019-02-21T07:06:31.989Z,42.93
2019-02-21T07:09:31.856Z,42.53
2019-02-21T07:12:33.831Z,47.37
2019-02-21T07:15:35.779Z,42.60
2019-02-21T07:18:37.757Z,52.27
2019-02-21T07:21:39.650Z,48.00
2019-02-21T07:24:42.738Z,49.63
2019-02-21T07:27:44.628Z,50.90
2019-02-21T07:30:47.175Z,45.27
2019-02-21T07:33:49.195Z,43.20
2019-02-21T07:36:51.123Z,42.40
2019-02-21T07:39:53.141Z,33.07
2019-02-21T07:42:55.299Z,45.97
2019-02-21T07:45:57.226Z,41.60
2019-02-21T07:49:00.299Z,43.87
2019-02-21T07:52:02.211Z,49.87
2019-02-21T07:55:06.815Z,45.93
2019-02-21T07:58:08.734Z,44.17
2019-02-21T08:01:10.694Z,37.13
2019-02-21T08:04:14.420Z,39.37
2019-02-21T08:07:16.359Z,43.33
2019-02-21T08:10:21.048Z,44.10
2019-02-21T08:13:22.198Z,35.80
2019-02-21T08:16:24.165Z,35.60
2019-02-21T08:19:26.051Z,33.13
2019-02-21T08:22:28.005Z,42.53
2019-02-21T08:25:29.993Z,37.50
2019-02-21T08:28:31.859Z,36.50
2019-02-21T08:31:34.883Z,32.47
2019-02-21T08:34:38.694Z,33.87
2019-02-21T08:37:40.650Z,34.20
2019-02-21T08:40:42.564Z,32.60
2019-02-21T08:43:44.609Z,33.47
2019-02-21T08:46:46.537Z,35.57
2019-02-21T08:49:48.503Z,36.60
2019-02-21T08:52:50.445Z,35.47
2019-02-21T08:55:52.419Z,37.70
2019-02-21T08:58:54.418Z,38.20
2019-02-21T09:01:56.484Z,37.20
2019-02-21T09:04:59.038Z,43.50
2019-02-21T09:08:01.022Z,33.50
2019-02-21T09:11:04.043Z,32.67
2019-02-21T09:14:06.275Z,37.30
2019-02-21T09:17:08.262Z,42.03
2019-02-21T09:20:10.765Z,41.27
2019-02-21T09:23:15.659Z,33.70
2019-02-21T09:26:16.707Z,34.93
2019-02-21T09:29:18.603Z,34.90
2019-02-21T09:32:20.499Z,34.03
2019-02-21T09:35:22.592Z,36.03
2019-02-21T09:38:24.491Z,40.07
2019-02-21T09:41:28.554Z,36.47
2019-02-21T09:44:30.394Z,34.87
2019-02-21T09:47:32.303Z,35.60
2019-02-21T09:50:34.288Z,35.50
2019-02-21T09:53:36.235Z,32.43
2019-02-21T09:56:38.196Z,37.73
2019-02-21T09:59:40.075Z,34.33
2019-02-21T10:02:42.218Z,35.60
2019-02-21T10:05:44.438Z,35.10
2019-02-21T10:08:46.401Z,37.00
2019-02-21T10:11:48.327Z,45.60
2019-02-21T10:14:50.282Z,36.23
2019-02-21T10:17:52.226Z,36.27
2019-02-21T10:20:54.192Z,34.67
2019-02-21T10:23:56.876Z,37.77
2019-02-21T10:26:59.292Z,35.80
2019-02-21T10:30:01.157Z,42.53
2019-02-21T10:33:03.113Z,42.93
2019-02-21T10:36:05.101Z,40.63
2019-02-21T10:39:07.031Z,47.67
2019-02-21T10:42:08.965Z,47.47
2019-02-21T10:45:14.396Z,42.33
2019-02-21T10:48:16.311Z,43.60
2019-02-21T10:51:18.289Z,36.50
2019-02-21T10:54:20.197Z,35.27
2019-02-21T10:57:22.297Z,42.20
2019-02-21T11:00:26.722Z,40.00
2019-02-21T11:03:28.734Z,39.10
2019-02-21T11:06:31.202Z,34.33
2019-02-21T11:09:33.167Z,34.43
2019-02-21T11:12:35.083Z,37.13
2019-02-21T11:15:37.106Z,39.77
2019-02-21T11:18:39.059Z,33.60
2019-02-21T11:21:40.994Z,33.40
2019-02-21T11:24:43.036Z,39.93
2019-02-21T11:27:45.006Z,34.93
2019-02-21T11:30:46.995Z,34.77
2019-02-21T11:33:48.840Z,36.53
2019-02-21T11:36:50.851Z,42.63
2019-02-21T11:39:52.859Z,43.30
2019-02-21T11:42:54.844Z,41.67
2019-02-21T11:45:57.514Z,39.73
2019-02-21T11:48:59.662Z,38.20
2019-02-21T11:52:09.813Z,34.37
2019-02-21T11:55:08.639Z,37.43
2019-02-21T11:58:11.820Z,41.57
2019-02-21T12:01:13.815Z,41.47
2019-02-21T12:04:15.761Z,45.57
2019-02-21T12:07:17.934Z,46.47
2019-02-21T12:10:20.034Z,39.10
2019-02-21T12:13:22.009Z,40.87
2019-02-21T12:16:23.951Z,42.57
2019-02-21T12:19:25.957Z,47.10
2019-02-21T12:22:27.897Z,39.00
2019-02-21T12:25:29.853Z,43.70
2019-02-21T12:28:35.233Z,50.30
2019-02-21T12:31:37.274Z,41.97
2019-02-21T12:34:39.343Z,42.70
2019-02-21T12:37:41.305Z,37.80
2019-02-21T12:40:43.231Z,35.63
2019-02-21T12:43:45.198Z,35.83
2019-02-21T12:46:47.353Z,43.87
2019-02-21T12:49:49.256Z,44.03
2019-02-21T12:52:51.229Z,36.57
2019-02-21T12:55:53.161Z,40.30
2019-02-21T12:58:55.154Z,37.07
2019-02-21T13:01:57.061Z,46.23
2019-02-21T13:04:59.038Z,45.57
2019-02-21T13:08:01.043Z,41.20
2019-02-21T13:11:03.068Z,38.63
2019-02-21T13:14:04.989Z,46.67
2019-02-21T13:17:07.571Z,30.30
2019-02-21T13:20:12.185Z,34.33
2019-02-21T13:23:14.358Z,34.07
2019-02-21T13:26:16.693Z,34.30
2019-02-21T13:29:18.700Z,38.23
2019-02-21T13:32:20.578Z,34.80
2019-02-21T13:35:22.484Z,36.40
2019-02-21T13:38:24.515Z,42.67
2019-02-21T13:41:26.442Z,35.80
2019-02-21T13:44:28.361Z,39.73
2019-02-21T13:47:30.543Z,41.13
2019-02-21T13:50:32.543Z,36.70
2019-02-21T13:53:34.459Z,40.07
2019-02-21T13:56:36.484Z,45.53
2019-02-21T13:59:38.342Z,42.37
2019-02-21T14:02:40.247Z,40.03
2019-02-21T14:05:42.179Z,40.93
2019-02-21T14:08:44.842Z,43.00
2019-02-21T14:11:47.905Z,41.47
2019-02-21T14:14:49.993Z,45.70
2019-02-21T14:17:51.899Z,46.03
2019-02-21T14:20:53.841Z,41.37
2019-02-21T14:23:55.773Z,39.57
2019-02-21T14:26:57.711Z,44.83
2019-02-21T14:29:59.719Z,43.40
2019-02-21T14:33:01.660Z,49.73
2019-02-21T14:36:15.208Z,37.00
2019-02-21T14:39:10.628Z,30.30
2019-02-21T14:42:13.033Z,23.20
2019-02-21T14:45:20.498Z,28.53
2019-02-21T14:48:22.568Z,26.13
2019-02-21T14:51:24.498Z,31.77
2019-02-21T14:54:26.453Z,30.47
2019-02-21T14:57:28.439Z,29.60
2019-02-21T15:00:30.407Z,34.13
2019-02-21T15:03:32.306Z,36.40
2019-02-21T15:06:34.550Z,31.60
2019-02-21T15:09:36.567Z,34.83
2019-02-21T15:12:38.672Z,41.37
2019-02-21T15:15:40.792Z,29.17
2019-02-21T15:18:42.795Z,35.83
2019-02-21T15:21:44.797Z,36.83
2019-02-21T15:24:49.351Z,40.90
2019-02-21T15:27:51.224Z,39.87
2019-02-21T15:30:54.264Z,44.17
2019-02-21T15:33:56.259Z,41.93
2019-02-21T15:36:58.380Z,42.20
2019-02-21T15:40:01.115Z,53.03
2019-02-21T15:43:05.301Z,55.87
2019-02-21T15:46:07.564Z,70.13
2019-02-21T15:49:09.729Z,59.93
2019-02-21T15:52:21.777Z,44.93
2019-02-21T15:55:17.553Z,35.63
2019-02-21T15:58:22.043Z,37.40
2019-02-21T16:01:24.085Z,35.50
2019-02-21T16:04:26.220Z,34.97
2019-02-21T16:07:28.699Z,39.13
2019-02-21T16:10:30.785Z,40.40
2019-02-21T16:13:32.970Z,36.67
2019-02-21T16:16:35.512Z,43.57
2019-02-21T16:19:37.510Z,44.50
2019-02-21T16:22:39.641Z,49.83
2019-02-21T16:25:41.528Z,52.20
2019-02-21T16:28:46.189Z,49.67
2019-02-21T16:31:50.477Z,59.50
2019-02-21T16:34:54.407Z,51.20
2019-02-21T16:37:56.397Z,53.47
2019-02-21T16:41:03.028Z,52.03
2019-02-21T16:44:07.092Z,58.97
2019-02-21T16:47:09.497Z,57.23
2019-02-21T16:50:13.855Z,49.80
2019-02-21T16:53:15.778Z,46.57
2019-02-21T16:56:20.077Z,46.43
2019-02-21T16:59:25.471Z,47.63
2019-02-21T17:02:27.469Z,37.50
2019-02-21T17:05:29.498Z,45.73
2019-02-21T17:08:31.938Z,42.67
2019-02-21T17:11:35.593Z,47.07
2019-02-21T17:14:37.551Z,42.53
2019-02-21T17:17:39.594Z,40.97
2019-02-21T17:20:41.576Z,37.43
2019-02-21T17:23:43.612Z,41.47
2019-02-21T17:26:47.833Z,54.23
2019-02-21T17:29:50.931Z,38.03
2019-02-21T17:32:52.964Z,44.73
2019-02-21T17:35:56.757Z,48.73
2019-02-21T17:38:59.110Z,45.43
2019-02-21T17:42:02.507Z,31.70
2019-02-21T17:45:05.969Z,32.63
2019-02-21T17:48:07.957Z,25.23
2019-02-21T17:51:14.258Z,26.00
2019-02-21T17:54:17.861Z,34.70
2019-02-21T17:57:21.066Z,39.37
2019-02-21T18:00:28.405Z,44.37
2019-02-21T18:03:33.916Z,49.17
2019-02-21T18:06:36.193Z,46.80
2019-02-21T18:09:38.521Z,50.10
2019-02-21T18:12:43.919Z,50.90
2019-02-21T18:15:46.888Z,43.83
2019-02-21T18:18:48.807Z,53.53
2019-02-21T18:21:57.901Z,48.50
2019-02-21T18:25:01.333Z,47.13
2019-02-21T18:28:03.753Z,50.63
2019-02-21T18:31:05.658Z,45.90
2019-02-21T18:34:07.563Z,49.80
2019-02-21T18:37:10.853Z,51.30
2019-02-21T18:40:17.785Z,57.50
2019-02-21T18:43:21.719Z,65.40
2019-02-21T18:46:23.731Z,66.13
2019-02-21T18:49:25.716Z,58.10
2019-02-21T18:52:28.518Z,48.23
2019-02-21T18:55:30.984Z,34.00
2019-02-21T18:58:33.325Z,36.13
2019-02-21T19:01:35.404Z,40.03
2019-02-21T19:04:37.506Z,34.83
2019-02-21T19:07:39.495Z,36.47
2019-02-21T19:10:41.504Z,36.93
2019-02-21T19:13:46.932Z,33.03
2019-02-21T19:16:51.080Z,33.93
2019-02-21T19:19:55.542Z,34.70
2019-02-21T19:22:58.511Z,36.57
2019-02-21T19:26:00.474Z,33.50
2019-02-21T19:29:03.642Z,35.30
2019-02-21T19:32:05.586Z,40.57
2019-02-21T19:35:09.048Z,41.13
2019-02-21T19:38:12.808Z,34.83
2019-02-21T19:41:15.410Z,38.60
2019-02-21T19:44:18.447Z,40.83
2019-02-21T19:47:23.753Z,39.90
2019-02-21T19:50:26.078Z,40.07
2019-02-21T19:53:28.384Z,39.27
2019-02-21T19:56:31.732Z,40.33
2019-02-21T19:59:35.788Z,70.60
2019-02-21T20:02:40.137Z,38.17
2019-02-21T20:05:42.153Z,41.73
2019-02-21T20:08:45.499Z,38.27
2019-02-21T20:11:50.660Z,38.63
2019-02-21T20:14:54.320Z,37.80
2019-02-21T20:17:59.305Z,38.13
2019-02-21T20:21:01.276Z,36.73
2019-02-21T20:24:09.091Z,38.27
2019-02-21T20:27:13.628Z,43.00
2019-02-21T20:30:17.082Z,40.30
2019-02-21T20:33:20.335Z,41.00
2019-02-21T20:36:22.346Z,45.80
2019-02-21T20:39:24.706Z,51.67
2019-02-21T20:42:26.651Z,45.63
2019-02-21T20:45:28.667Z,43.53
2019-02-21T20:48:36.560Z,43.17
2019-02-21T20:51:38.475Z,40.70
2019-02-21T20:54:43.717Z,42.87
2019-02-21T20:57:45.746Z,42.80
2019-02-21T21:00:47.716Z,75.40
2019-02-21T21:03:50.761Z,47.30
2019-02-21T21:06:53.848Z,47.40
2019-02-21T21:09:56.224Z,41.70
2019-02-21T21:13:02.430Z,43.77
2019-02-21T21:16:06.421Z,45.43
2019-02-21T21:19:09.833Z,41.60
2019-02-21T21:22:11.781Z,48.80
2019-02-21T21:25:17.436Z,45.83
2019-02-21T21:28:19.402Z,48.03
2019-02-21T21:31:21.310Z,51.40
2019-02-21T21:34:25.111Z,47.93
2019-02-21T21:37:27.022Z,53.03
2019-02-21T21:40:28.951Z,50.50
2019-02-21T21:43:30.844Z,52.03
2019-02-21T21:46:32.858Z,51.93
2019-02-21T21:49:34.922Z,103.30
2019-02-21T21:52:36.843Z,50.10
2019-02-21T21:55:38.790Z,52.67
2019-02-21T21:58:40.732Z,58.23
2019-02-21T22:01:42.703Z,62.30
2019-02-21T22:04:44.619Z,54.57
2019-02-21T22:07:49.081Z,55.80
2019-02-21T22:10:50.419Z,51.50
2019-02-21T22:13:52.670Z,54.10
2019-02-21T22:16:54.775Z,52.07
2019-02-21T22:19:56.795Z,53.43
2019-02-21T22:22:58.784Z,48.53
2019-02-21T22:26:00.889Z,53.40
2019-02-21T22:29:02.953Z,44.27
2019-02-21T22:32:04.912Z,44.27
2019-02-21T22:35:07.272Z,50.10
2019-02-21T22:38:09.306Z,46.63
2019-02-21T22:41:11.315Z,52.23
2019-02-21T22:44:13.353Z,48.27
2019-02-21T22:47:15.455Z,45.83
2019-02-21T22:50:18.486Z,46.40
2019-02-21T22:53:20.433Z,48.73
2019-02-21T22:56:22.408Z,44.10
2019-02-21T22:59:24.443Z,46.87
2019-02-21T23:02:27.742Z,41.23
2019-02-21T23:05:50.239Z,45.27
2019-02-21T23:08:53.554Z,41.67
2019-02-21T23:11:55.500Z,41.60
2019-02-21T23:14:57.585Z,40.43
2019-02-21T23:18:00.181Z,42.93
2019-02-21T23:21:02.327Z,44.40
2019-02-21T23:24:04.586Z,43.07
2019-02-21T23:27:06.595Z,44.37
2019-02-21T23:30:09.359Z,41.73
2019-02-21T23:33:11.412Z,39.20
2019-02-21T23:36:13.450Z,43.90
2019-02-21T23:39:15.449Z,42.90
2019-02-21T23:42:18.217Z,46.03
2019-02-21T23:45:20.534Z,45.00
2019-02-21T23:48:22.546Z,42.70
2019-02-21T23:51:24.584Z,38.63
2019-02-21T23:54:26.587Z,44.20
2019-02-21T23:57:28.638Z,37.17
